Terminal Aerodrome Forecast
Issued by NWS

Home | Current Version | Previous Version | Text Only | Print | Product List | Glossary On
Versions: 1 2 3 4 5 6 7 8 9 10 11 12 13 14 15 16
000
FTUS43 KDVN 280520
TAFBRL
TAF
KBRL 280520Z 2806/2906 14004KT P6SM SCT200
     FM280900 12004KT 4SM BR SCT200
     FM281400 13008KT P6SM SCT040 PROB30 2820/2824 4SM TSRA BR
      BKN035CB
     FM290000 16004KT P6SM BKN050
      TEMPO 2900/2904 3SM TSRA BR BKN035CB=

USA.gov is the U.S. government's official web portal to all federal, state and local government web resources and services.